Open Full Screen Window  High Contrast Mode
October 30, 2014 11:53 AM EDT
Weather Information
Wind Direction
  ---
Wind Speed
  00 kt (0 mph)
Wind Gust
  00 kt (0 mph)
Altimeter
30.16 in
Visibility
10 SM
Temperature
11° C
52° F
Dewpoint
00° C
32° F
Humidity
47%
1hr Rain Fall
00.00 in.
24hr Rain Fall
00.00 in.
Sky Condition
Scattered @ 3,800 ft
VFR

METAR KI69 301553Z AUTO 00000KT 10SM SCT038 11/00 A3016 RMK AO1

*Background is not an actual portrayal of the airport.